createdAt,value
2022-08-26T00:00:19.807Z,11.00
2022-08-26T00:03:03.511Z,10.80
2022-08-26T00:05:31.515Z,11.40
2022-08-26T00:07:59.462Z,11.60
2022-08-26T00:10:27.545Z,10.30
2022-08-26T00:12:55.419Z,10.90
2022-08-26T00:15:25.493Z,11.90
2022-08-26T00:17:54.096Z,12.50
2022-08-26T00:20:28.794Z,12.10
2022-08-26T00:22:56.711Z,11.40
2022-08-26T00:25:24.952Z,11.90
2022-08-26T00:27:53.027Z,11.70
2022-08-26T00:30:26.915Z,14.60
2022-08-26T00:32:56.533Z,12.80
2022-08-26T00:35:27.983Z,13.00
2022-08-26T00:37:57.410Z,12.60
2022-08-26T00:40:34.539Z,13.10
2022-08-26T00:43:09.310Z,13.70
2022-08-26T00:45:59.317Z,13.20
2022-08-26T00:48:32.392Z,12.60
2022-08-26T00:51:09.039Z,12.70
2022-08-26T00:53:48.652Z,13.80
2022-08-26T00:56:34.426Z,15.40
2022-08-26T00:59:10.220Z,13.40
2022-08-26T01:01:41.386Z,14.20
2022-08-26T01:04:13.664Z,12.70
2022-08-26T01:06:42.488Z,14.50
2022-08-26T01:09:12.971Z,14.10
2022-08-26T01:11:41.531Z,15.30
2022-08-26T01:14:11.725Z,14.80
2022-08-26T01:16:39.898Z,15.30
2022-08-26T01:19:29.862Z,15.10
2022-08-26T01:22:08.311Z,14.90
2022-08-26T01:24:38.151Z,15.20
2022-08-26T01:27:10.832Z,14.70
2022-08-26T01:29:42.787Z,14.60
2022-08-26T01:32:16.034Z,15.60
2022-08-26T01:34:47.053Z,15.90
2022-08-26T01:37:22.038Z,16.80
2022-08-26T01:39:54.768Z,16.00
2022-08-26T01:42:25.893Z,15.90
2022-08-26T01:45:04.619Z,16.10
2022-08-26T01:47:35.470Z,17.80
2022-08-26T01:50:12.092Z,16.70
2022-08-26T01:52:45.010Z,16.90
2022-08-26T01:55:32.926Z,17.00
2022-08-26T01:58:07.990Z,16.60
2022-08-26T02:00:36.846Z,18.40
2022-08-26T02:03:16.633Z,18.30
2022-08-26T02:06:04.603Z,17.60
2022-08-26T02:08:47.909Z,20.50
2022-08-26T02:11:15.858Z,19.60
2022-08-26T02:14:02.505Z,35.50
2022-08-26T02:16:42.330Z,96.10
2022-08-26T02:19:24.188Z,117.30
2022-08-26T02:21:53.641Z,114.90
2022-08-26T02:24:29.279Z,116.70
2022-08-26T02:26:58.483Z,120.00
2022-08-26T02:29:37.380Z,96.70
2022-08-26T02:32:08.464Z,54.00
2022-08-26T02:34:37.655Z,51.90
2022-08-26T02:37:09.438Z,32.10
2022-08-26T02:39:41.424Z,25.60
2022-08-26T02:42:10.267Z,25.60
2022-08-26T02:44:38.204Z,23.80
2022-08-26T02:47:07.648Z,24.60
2022-08-26T02:49:37.772Z,22.80
2022-08-26T02:52:05.822Z,22.20
2022-08-26T02:54:33.636Z,23.80
2022-08-26T02:57:02.950Z,23.50
2022-08-26T02:59:31.700Z,23.00
2022-08-26T03:02:00.409Z,23.80
2022-08-26T03:04:28.926Z,26.10
2022-08-26T03:09:29.173Z,22.70
2022-08-26T03:11:57.896Z,26.70
2022-08-26T03:14:26.015Z,28.20
2022-08-26T03:16:54.699Z,28.10
2022-08-26T03:19:25.002Z,28.00
2022-08-26T03:21:57.853Z,29.10
2022-08-26T03:24:26.806Z,30.00
2022-08-26T03:26:55.046Z,27.80
2022-08-26T03:29:42.851Z,29.30
2022-08-26T03:32:11.493Z,28.10
2022-08-26T03:34:39.417Z,29.00
2022-08-26T03:37:07.716Z,29.90
2022-08-26T03:39:36.860Z,28.80
2022-08-26T03:42:05.920Z,29.60
2022-08-26T03:44:34.674Z,27.30
2022-08-26T03:47:02.974Z,28.60
2022-08-26T03:49:35.861Z,30.70
2022-08-26T03:52:05.206Z,28.00
2022-08-26T03:54:34.047Z,28.40
2022-08-26T03:57:02.131Z,27.40
2022-08-26T03:59:30.253Z,28.40
2022-08-26T04:01:58.339Z,28.60
2022-08-26T04:04:26.315Z,26.30
2022-08-26T04:06:59.628Z,25.20
2022-08-26T04:09:28.411Z,25.50
2022-08-26T04:11:58.598Z,26.40
2022-08-26T04:14:28.304Z,26.40
2022-08-26T04:16:56.552Z,25.20
2022-08-26T04:19:25.670Z,24.50
2022-08-26T04:21:54.556Z,23.50
2022-08-26T04:24:25.644Z,22.30
2022-08-26T04:26:53.852Z,23.00
2022-08-26T04:29:26.226Z,22.00
2022-08-26T04:31:56.108Z,23.90
2022-08-26T04:34:28.426Z,23.30
2022-08-26T04:36:57.927Z,23.90
2022-08-26T04:39:27.774Z,23.30
2022-08-26T04:41:57.774Z,24.50
2022-08-26T04:44:28.802Z,24.10
2022-08-26T04:46:58.618Z,23.60
2022-08-26T04:49:27.724Z,23.30
2022-08-26T04:51:55.831Z,22.70
2022-08-26T04:54:23.880Z,24.90
2022-08-26T04:56:54.167Z,24.10
2022-08-26T04:59:22.223Z,22.60
2022-08-26T05:01:52.879Z,22.10
2022-08-26T05:04:21.287Z,23.00
2022-08-26T05:06:50.533Z,23.70
2022-08-26T05:09:19.963Z,23.00
2022-08-26T05:11:52.036Z,22.30
2022-08-26T05:14:23.315Z,23.60
2022-08-26T05:16:51.803Z,21.30
2022-08-26T05:19:19.814Z,24.60
2022-08-26T05:21:49.685Z,23.70
2022-08-26T05:24:18.223Z,22.30
2022-08-26T05:26:47.261Z,22.80
2022-08-26T05:29:16.926Z,22.30
2022-08-26T05:31:44.916Z,20.50
2022-08-26T05:34:13.297Z,19.70
2022-08-26T05:36:42.103Z,19.90
2022-08-26T05:39:10.811Z,20.90
2022-08-26T05:41:42.840Z,20.10
2022-08-26T05:44:15.228Z,19.40
2022-08-26T05:46:46.049Z,17.90
2022-08-26T05:49:16.032Z,18.60
2022-08-26T05:51:46.455Z,18.40
2022-08-26T05:54:21.737Z,18.60
2022-08-26T05:56:52.079Z,18.70
2022-08-26T05:59:24.179Z,18.20
2022-08-26T06:04:28.396Z,16.50
2022-08-26T06:06:58.774Z,15.50
2022-08-26T06:09:27.381Z,15.40
2022-08-26T06:11:56.068Z,15.20
2022-08-26T06:14:26.023Z,15.00
2022-08-26T06:16:54.973Z,15.20
2022-08-26T06:19:23.067Z,15.10
2022-08-26T06:21:54.678Z,14.90
2022-08-26T06:24:41.663Z,12.20
2022-08-26T06:27:13.666Z,12.80
2022-08-26T06:29:42.185Z,13.10
2022-08-26T06:32:10.889Z,12.60
2022-08-26T06:34:38.986Z,13.10
2022-08-26T06:37:07.165Z,12.30
2022-08-26T06:39:35.299Z,12.10
2022-08-26T06:42:08.747Z,11.70
2022-08-26T06:44:39.030Z,11.60
2022-08-26T06:47:08.950Z,11.20
2022-08-26T06:49:37.286Z,11.60
2022-08-26T06:52:05.259Z,11.60
2022-08-26T06:54:33.370Z,11.90
2022-08-26T06:57:01.271Z,12.00
2022-08-26T06:59:31.112Z,11.30
2022-08-26T07:01:59.097Z,10.80
2022-08-26T07:04:28.044Z,12.30
2022-08-26T07:06:56.533Z,11.10
2022-08-26T07:09:30.359Z,10.40
2022-08-26T07:11:58.979Z,12.90
2022-08-26T07:14:26.937Z,12.00
2022-08-26T07:16:55.005Z,11.00
2022-08-26T07:19:30.052Z,10.40
2022-08-26T07:22:03.367Z,11.40
2022-08-26T07:24:37.042Z,14.00
2022-08-26T07:27:11.555Z,10.60
2022-08-26T07:29:42.320Z,10.00
2022-08-26T07:32:13.892Z,10.30
2022-08-26T07:34:42.938Z,57.20
2022-08-26T07:37:11.623Z,10.20
2022-08-26T07:39:43.174Z,14.60
2022-08-26T07:42:15.771Z,9.20
2022-08-26T07:44:47.051Z,9.80
2022-08-26T07:47:25.627Z,10.20
2022-08-26T07:49:57.656Z,9.60
2022-08-26T07:52:29.260Z,9.20
2022-08-26T07:55:01.555Z,9.00
2022-08-26T07:59:59.745Z,8.60
2022-08-26T08:02:29.393Z,9.20
2022-08-26T08:04:58.582Z,9.10
2022-08-26T08:07:44.907Z,69.00
2022-08-26T08:10:22.631Z,9.50
2022-08-26T08:12:54.280Z,10.00
2022-08-26T08:15:26.467Z,15.80
2022-08-26T08:18:01.269Z,9.70
2022-08-26T08:20:30.344Z,10.40
2022-08-26T08:22:59.361Z,28.60
2022-08-26T08:25:27.376Z,8.30
2022-08-26T08:27:55.306Z,9.60
2022-08-26T08:30:24.981Z,8.40
2022-08-26T08:32:53.190Z,30.80
2022-08-26T08:35:23.585Z,8.60
2022-08-26T08:37:55.603Z,8.40
2022-08-26T08:40:27.317Z,8.40
2022-08-26T08:43:04.926Z,9.10
2022-08-26T08:45:41.962Z,7.30
2022-08-26T08:48:27.690Z,9.40
2022-08-26T08:51:23.883Z,7.40
2022-08-26T08:53:55.069Z,29.60
2022-08-26T08:56:42.790Z,7.90
2022-08-26T08:59:25.755Z,7.50
2022-08-26T09:01:59.889Z,7.20
2022-08-26T09:05:25.422Z,7.00
2022-08-26T09:08:11.132Z,68.20
2022-08-26T09:10:50.809Z,6.80
2022-08-26T09:13:25.323Z,6.80
2022-08-26T09:16:09.898Z,20.00
2022-08-26T09:19:24.790Z,14.30
2022-08-26T09:21:58.284Z,12.80
2022-08-26T09:24:29.841Z,6.30
2022-08-26T09:26:59.085Z,34.10
2022-08-26T09:29:35.999Z,33.90
2022-08-26T09:32:24.173Z,15.40
2022-08-26T09:35:09.095Z,6.10
2022-08-26T09:37:40.833Z,6.80
2022-08-26T09:40:29.163Z,8.20
2022-08-26T09:43:16.000Z,8.20
2022-08-26T09:45:59.101Z,6.40
2022-08-26T09:48:37.001Z,6.50
2022-08-26T09:51:21.768Z,6.40
2022-08-26T09:53:56.418Z,6.10
2022-08-26T09:56:39.348Z,4.90
2022-08-26T09:59:12.083Z,5.60
2022-08-26T10:01:45.036Z,5.00
2022-08-26T10:04:26.796Z,5.40
2022-08-26T10:07:02.769Z,5.00
2022-08-26T10:09:40.542Z,5.40
2022-08-26T10:12:19.144Z,4.90
2022-08-26T10:14:57.656Z,8.30
2022-08-26T10:17:38.106Z,8.90
2022-08-26T10:20:22.631Z,5.20
2022-08-26T10:23:18.068Z,5.20
2022-08-26T10:25:57.955Z,5.30
2022-08-26T10:29:07.522Z,4.60
2022-08-26T10:31:46.793Z,4.30
2022-08-26T10:34:18.438Z,4.80
2022-08-26T10:37:14.481Z,5.10
2022-08-26T10:40:02.471Z,5.50
2022-08-26T10:42:43.078Z,3.70
2022-08-26T10:45:17.648Z,4.10
2022-08-26T10:48:11.514Z,3.90
2022-08-26T10:50:44.012Z,4.00
2022-08-26T10:53:57.661Z,3.30
2022-08-26T10:56:59.602Z,3.70
2022-08-26T11:00:33.747Z,4.00
2022-08-26T11:03:35.737Z,3.20
2022-08-26T11:06:18.854Z,3.60
2022-08-26T11:08:53.942Z,7.50
2022-08-26T11:11:40.288Z,5.50
2022-08-26T11:14:11.701Z,4.20
2022-08-26T11:16:53.691Z,4.60
2022-08-26T11:19:45.612Z,3.40
2022-08-26T11:22:33.154Z,3.80
2022-08-26T11:27:35.987Z,4.00
2022-08-26T11:30:08.975Z,5.30
2022-08-26T11:32:39.092Z,4.50
2022-08-26T11:35:32.691Z,5.00
2022-08-26T11:38:15.218Z,4.00
2022-08-26T11:40:44.051Z,4.00
2022-08-26T11:43:21.436Z,3.70
2022-08-26T11:46:03.149Z,3.80
2022-08-26T11:48:43.340Z,4.50
2022-08-26T11:51:23.058Z,171.60
2022-08-26T11:53:51.744Z,7.20
2022-08-26T11:56:32.467Z,8.60
2022-08-26T11:59:07.410Z,5.40
2022-08-26T12:01:44.560Z,4.00
2022-08-26T12:04:27.280Z,5.20
2022-08-26T12:06:57.575Z,4.20
2022-08-26T12:09:30.823Z,4.20
2022-08-26T12:12:34.800Z,4.00
2022-08-26T12:15:14.524Z,3.60
2022-08-26T12:17:45.226Z,4.50
2022-08-26T12:20:56.352Z,4.00
2022-08-26T12:23:40.510Z,8.80
2022-08-26T12:26:22.623Z,4.20
2022-08-26T12:29:12.833Z,3.60
2022-08-26T12:31:48.799Z,3.60
2022-08-26T12:34:18.705Z,3.70
2022-08-26T12:39:31.279Z,3.90
2022-08-26T12:42:21.689Z,3.50
2022-08-26T12:45:01.371Z,3.50
2022-08-26T12:47:56.165Z,3.60
2022-08-26T12:50:32.764Z,4.00
2022-08-26T12:53:07.136Z,4.00
2022-08-26T12:55:45.524Z,4.30
2022-08-26T12:58:16.014Z,3.70
2022-08-26T13:00:46.093Z,3.60
2022-08-26T13:03:43.431Z,3.10
2022-08-26T13:06:27.920Z,3.60
2022-08-26T13:09:01.510Z,4.80
2022-08-26T13:11:39.748Z,6.30
2022-08-26T13:14:12.095Z,5.50
2022-08-26T13:16:47.427Z,6.20
2022-08-26T13:19:22.169Z,4.30
2022-08-26T13:21:54.570Z,3.50
2022-08-26T13:24:31.534Z,21.40
2022-08-26T13:26:59.811Z,4.40
2022-08-26T13:29:27.765Z,4.40
2022-08-26T13:31:56.984Z,4.10
2022-08-26T13:34:26.966Z,3.90
2022-08-26T13:36:56.572Z,3.50
2022-08-26T13:39:25.932Z,4.00
2022-08-26T13:41:54.604Z,4.50
2022-08-26T13:44:22.529Z,3.60
2022-08-26T13:46:51.187Z,3.80
2022-08-26T13:49:19.068Z,3.00
2022-08-26T13:51:46.958Z,3.50
2022-08-26T13:54:14.899Z,3.10
2022-08-26T13:56:42.805Z,3.30
2022-08-26T13:59:10.854Z,3.20
2022-08-26T14:01:39.982Z,6.50
2022-08-26T14:04:08.604Z,3.00
2022-08-26T14:06:37.412Z,3.10
2022-08-26T14:09:05.403Z,3.30
2022-08-26T14:11:39.037Z,3.60
2022-08-26T14:14:14.650Z,2.90
2022-08-26T14:16:59.746Z,2.90
2022-08-26T14:19:30.379Z,3.00
2022-08-26T14:22:00.932Z,3.40
2022-08-26T14:24:29.933Z,3.20
2022-08-26T14:26:58.505Z,3.00
2022-08-26T14:29:26.647Z,3.00
2022-08-26T14:31:56.410Z,3.50
2022-08-26T14:34:25.039Z,3.40
2022-08-26T14:36:52.944Z,2.90
2022-08-26T14:39:20.831Z,3.30
2022-08-26T14:41:54.995Z,3.50
2022-08-26T14:44:31.177Z,2.60
2022-08-26T14:47:02.768Z,3.70
2022-08-26T14:49:31.552Z,2.90
2022-08-26T14:51:59.684Z,2.90
2022-08-26T14:54:29.345Z,3.20
2022-08-26T14:57:03.852Z,3.30
2022-08-26T14:59:37.230Z,3.00
2022-08-26T15:02:08.680Z,2.80
2022-08-26T15:04:37.936Z,3.30
2022-08-26T15:07:07.051Z,2.80
2022-08-26T15:09:37.515Z,3.80
2022-08-26T15:12:05.863Z,2.60
2022-08-26T15:14:34.186Z,3.10
2022-08-26T15:17:02.517Z,3.00
2022-08-26T15:19:30.442Z,3.30
2022-08-26T15:21:58.465Z,3.40
2022-08-26T15:24:28.863Z,3.10
2022-08-26T15:26:57.788Z,3.50
2022-08-26T15:29:25.781Z,6.40
2022-08-26T15:31:55.304Z,3.40
2022-08-26T15:34:25.490Z,3.20
2022-08-26T15:36:54.236Z,2.80
2022-08-26T15:39:22.167Z,2.80
2022-08-26T15:41:50.230Z,2.60
2022-08-26T15:44:18.451Z,3.50
2022-08-26T15:46:49.371Z,3.60
2022-08-26T15:49:18.709Z,2.90
2022-08-26T15:51:50.227Z,3.10
2022-08-26T15:54:22.113Z,3.60
2022-08-26T15:56:52.125Z,3.60
2022-08-26T15:59:22.057Z,3.00
2022-08-26T16:01:51.765Z,2.90
2022-08-26T16:04:20.751Z,3.10
2022-08-26T16:06:51.507Z,3.10
2022-08-26T16:09:24.304Z,3.20
2022-08-26T16:11:56.998Z,2.90
2022-08-26T16:14:27.011Z,3.20
2022-08-26T16:16:54.968Z,2.50
2022-08-26T16:19:22.999Z,2.90
2022-08-26T16:21:51.599Z,3.40
2022-08-26T16:24:24.837Z,2.80
2022-08-26T16:26:55.419Z,2.80
2022-08-26T16:29:24.624Z,3.10
2022-08-26T16:31:54.670Z,3.20
2022-08-26T16:34:23.014Z,3.00
2022-08-26T16:36:51.677Z,3.70
2022-08-26T16:39:19.824Z,3.80
2022-08-26T16:41:47.664Z,3.00
2022-08-26T16:44:15.694Z,4.10
2022-08-26T16:46:44.660Z,3.20
2022-08-26T16:49:12.709Z,3.10
2022-08-26T16:51:40.662Z,2.90
2022-08-26T16:54:08.958Z,3.30
2022-08-26T16:56:37.731Z,4.10
2022-08-26T16:59:11.503Z,3.90
2022-08-26T17:01:39.443Z,3.40
2022-08-26T17:04:07.747Z,2.80
2022-08-26T17:06:36.423Z,3.10
2022-08-26T17:09:04.920Z,2.70
2022-08-26T17:11:33.331Z,3.60
2022-08-26T17:14:01.247Z,3.50
2022-08-26T17:16:29.383Z,3.20
2022-08-26T17:18:59.491Z,2.80
2022-08-26T17:21:28.896Z,3.80
2022-08-26T17:23:56.863Z,4.10
2022-08-26T17:26:26.359Z,3.40
2022-08-26T17:28:55.252Z,3.40
2022-08-26T17:31:24.023Z,3.10
2022-08-26T17:33:54.255Z,3.00
2022-08-26T17:36:28.179Z,5.20
2022-08-26T17:38:58.628Z,4.10
2022-08-26T17:41:27.494Z,3.50
2022-08-26T17:43:55.962Z,4.60
2022-08-26T17:46:24.657Z,12.60
2022-08-26T17:48:52.796Z,6.50
2022-08-26T17:51:22.769Z,3.70
2022-08-26T17:53:52.025Z,3.20
2022-08-26T17:56:25.570Z,3.50
2022-08-26T17:58:57.909Z,4.80
2022-08-26T18:01:32.564Z,7.70
2022-08-26T18:04:01.684Z,4.50
2022-08-26T18:06:30.886Z,4.30
2022-08-26T18:09:00.798Z,5.40
2022-08-26T18:11:31.100Z,5.70
2022-08-26T18:14:00.478Z,4.20
2022-08-26T18:16:31.626Z,3.00
2022-08-26T18:19:00.287Z,3.90
2022-08-26T18:21:28.516Z,4.10
2022-08-26T18:23:56.533Z,3.80
2022-08-26T18:26:32.039Z,3.80
2022-08-26T18:29:01.823Z,4.00
2022-08-26T18:31:31.023Z,3.80
2022-08-26T18:34:02.195Z,3.70
2022-08-26T18:36:34.721Z,4.10
2022-08-26T18:41:44.367Z,3.90
2022-08-26T18:44:16.157Z,3.50
2022-08-26T18:46:46.644Z,3.20
2022-08-26T18:49:17.402Z,3.70
2022-08-26T18:51:47.682Z,4.10
2022-08-26T18:54:16.445Z,4.10
2022-08-26T18:56:44.529Z,3.30
2022-08-26T18:59:13.950Z,3.70
2022-08-26T19:01:42.736Z,3.10
2022-08-26T19:04:15.362Z,3.70
2022-08-26T19:06:47.501Z,3.40
2022-08-26T19:09:17.846Z,2.90
2022-08-26T19:11:46.897Z,3.30
2022-08-26T19:14:18.654Z,4.50
2022-08-26T19:16:49.626Z,3.60
2022-08-26T19:19:20.553Z,3.80
2022-08-26T19:21:48.433Z,3.50
2022-08-26T19:24:18.451Z,3.40
2022-08-26T19:26:57.566Z,3.50
2022-08-26T19:29:34.964Z,4.00
2022-08-26T19:32:04.564Z,4.10
2022-08-26T19:34:32.649Z,4.10
2022-08-26T19:37:00.511Z,5.10
2022-08-26T19:39:28.468Z,4.10
2022-08-26T19:41:56.659Z,4.10
2022-08-26T19:44:43.268Z,3.30
2022-08-26T19:47:12.971Z,3.50
2022-08-26T19:49:41.175Z,4.20
2022-08-26T19:52:11.614Z,4.20
2022-08-26T19:54:40.474Z,4.40
2022-08-26T19:57:10.431Z,3.80
2022-08-26T19:59:40.208Z,3.50
2022-08-26T20:02:11.136Z,4.20
2022-08-26T20:04:40.022Z,4.10
2022-08-26T20:07:09.118Z,4.00
2022-08-26T20:09:38.311Z,4.00
2022-08-26T20:12:07.972Z,4.00
2022-08-26T20:14:36.615Z,4.60
2022-08-26T20:17:06.320Z,4.10
2022-08-26T20:19:54.440Z,8.40
2022-08-26T20:22:22.543Z,4.20
2022-08-26T20:24:50.438Z,4.30
2022-08-26T20:27:19.079Z,4.20
2022-08-26T20:29:46.981Z,3.80
2022-08-26T20:32:14.978Z,4.40
2022-08-26T20:34:42.791Z,4.60
2022-08-26T20:37:12.342Z,4.40
2022-08-26T20:39:40.275Z,4.30
2022-08-26T20:42:20.128Z,5.50
2022-08-26T20:44:54.824Z,4.70
2022-08-26T20:47:23.259Z,4.50
2022-08-26T20:49:52.721Z,4.60
2022-08-26T20:52:20.787Z,4.40
2022-08-26T20:54:48.757Z,5.30
2022-08-26T20:57:16.758Z,4.50
2022-08-26T20:59:44.797Z,4.80
2022-08-26T21:02:12.584Z,4.40
2022-08-26T21:04:40.530Z,4.80
2022-08-26T21:07:08.678Z,4.70
2022-08-26T21:09:36.523Z,4.40
2022-08-26T21:12:06.480Z,4.50
2022-08-26T21:14:34.326Z,4.70
2022-08-26T21:17:02.558Z,4.10
2022-08-26T21:19:30.490Z,4.40
2022-08-26T21:22:02.170Z,4.60
2022-08-26T21:24:33.022Z,5.00
2022-08-26T21:27:01.392Z,4.80
2022-08-26T21:29:29.229Z,5.10
2022-08-26T21:31:57.746Z,5.10
2022-08-26T21:34:25.663Z,5.60
2022-08-26T21:36:53.575Z,4.90
2022-08-26T21:39:21.681Z,5.00
2022-08-26T21:41:49.568Z,4.80
2022-08-26T21:44:17.795Z,5.10
2022-08-26T21:46:46.653Z,4.70
2022-08-26T21:49:16.370Z,4.30
2022-08-26T21:51:47.808Z,4.60
2022-08-26T21:54:18.228Z,5.50
2022-08-26T21:56:47.425Z,4.80
2022-08-26T21:59:18.614Z,5.00
2022-08-26T22:01:47.300Z,5.20
2022-08-26T22:04:17.050Z,5.10
2022-08-26T22:06:49.456Z,6.00
2022-08-26T22:09:22.365Z,5.60
2022-08-26T22:11:52.070Z,5.00
2022-08-26T22:14:30.392Z,4.80
2022-08-26T22:17:00.104Z,5.30
2022-08-26T22:19:31.671Z,4.30
2022-08-26T22:22:03.742Z,4.50
2022-08-26T22:24:32.908Z,5.00
2022-08-26T22:27:00.961Z,5.20
2022-08-26T22:29:29.823Z,5.90
2022-08-26T22:31:59.979Z,6.10
2022-08-26T22:34:28.399Z,6.00
2022-08-26T22:36:56.416Z,5.30
2022-08-26T22:39:26.284Z,5.60
2022-08-26T22:41:55.221Z,6.10
2022-08-26T22:44:23.811Z,5.60
2022-08-26T22:46:56.897Z,5.00
2022-08-26T22:49:24.939Z,5.70
2022-08-26T22:51:52.911Z,5.60
2022-08-26T22:54:20.817Z,6.90
2022-08-26T22:56:48.936Z,5.70
2022-08-26T22:59:16.907Z,5.80
2022-08-26T23:01:46.356Z,4.90
2022-08-26T23:04:14.844Z,5.80
2022-08-26T23:06:47.715Z,5.80
2022-08-26T23:09:18.740Z,5.90
2022-08-26T23:11:49.639Z,5.70
2022-08-26T23:14:19.148Z,5.60
2022-08-26T23:16:48.071Z,5.40
2022-08-26T23:19:20.440Z,5.80
2022-08-26T23:21:49.574Z,5.80
2022-08-26T23:24:17.940Z,5.60
2022-08-26T23:26:46.713Z,5.90
2022-08-26T23:29:16.351Z,5.30
2022-08-26T23:31:45.525Z,5.60
2022-08-26T23:34:32.712Z,6.70
2022-08-26T23:37:01.167Z,5.90
2022-08-26T23:39:32.110Z,5.40
2022-08-26T23:42:01.751Z,5.40
2022-08-26T23:44:30.823Z,5.90
2022-08-26T23:46:59.680Z,5.60
2022-08-26T23:49:28.923Z,5.90
2022-08-26T23:52:16.424Z,6.00
2022-08-26T23:54:48.590Z,5.70
2022-08-26T23:57:18.187Z,6.10
2022-08-26T23:59:48.412Z,6.00
